Time;durP1;ratioP1;P1;durP2;ratioP2;P2;SDS_P1;SDS_P2;PMS_P1;PMS_P2;Temp;Humidity;BMP_temperature;BMP_pressure;BME280_temperature;BME280_humidity;BME280_pressure;Samples;Min_cycle;Max_cycle;Signal;HPM_P1;HPM_P2
2023/01/25 00:00:46;;;;;;;21.50;11.50;;;1.20;99.90;;;;;;5213257;28;20201;-49
2023/01/25 00:03:17;;;;;;;25.63;11.87;;;1.20;99.90;;;;;;5229738;28;20190;-47
2023/01/25 00:05:56;;;;;;;19.43;11.20;;;1.30;99.90;;;;;;5225671;28;20630;-47
2023/01/25 00:08:27;;;;;;;21.50;11.33;;;1.30;99.90;;;;;;5212123;28;20210;-49
2023/01/25 00:10:58;;;;;;;19.67;10.77;;;1.30;99.90;;;;;;5232152;28;20429;-47
2023/01/25 00:13:29;;;;;;;19.00;12.30;;;1.30;99.90;;;;;;5232103;28;20635;-47
2023/01/25 00:16:03;;;;;;;22.93;11.60;;;1.40;99.90;;;;;;5217404;28;20215;-47
2023/01/25 00:18:34;;;;;;;18.43;11.33;;;1.50;99.90;;;;;;5224486;28;20236;-47
2023/01/25 00:21:24;;;;;;;20.40;12.53;;;1.30;99.90;;;;;;5219134;28;20453;-48
2023/01/25 00:23:55;;;;;;;18.73;11.37;;;1.30;99.90;;;;;;5230233;28;20195;-47
2023/01/25 00:26:28;;;;;;;25.53;11.13;;;1.30;99.90;;;;;;5214934;28;20850;-48
2023/01/25 00:28:59;;;;;;;18.40;11.60;;;1.40;99.90;;;;;;5211623;28;20469;-46
2023/01/25 00:31:33;;;;;;;15.57;10.83;;;1.50;99.90;;;;;;5228042;28;20471;-50
2023/01/25 00:34:28;;;;;;;27.03;12.30;;;1.50;99.90;;;;;;5235722;28;20386;-47
2023/01/25 00:37:24;;;;;;;15.60;10.53;;;1.50;99.90;;;;;;5212992;28;20920;-47
2023/01/25 00:39:55;;;;;;;14.90;9.63;;;1.60;99.90;;;;;;5199134;28;21023;-47
2023/01/25 00:42:25;;;;;;;18.30;9.90;;;1.50;99.90;;;;;;5227863;28;20437;-47
2023/01/25 00:44:56;;;;;;;16.13;10.70;;;1.60;99.90;;;;;;5207538;28;20190;-50
2023/01/25 00:47:27;;;;;;;18.93;10.60;;;1.60;99.90;;;;;;5227695;28;20199;-49
2023/01/25 00:49:58;;;;;;;16.53;10.00;;;1.70;99.90;;;;;;5220807;28;20175;-49
2023/01/25 00:52:29;;;;;;;15.03;10.50;;;1.70;99.90;;;;;;5223674;28;20538;-47
2023/01/25 00:55:00;;;;;;;32.70;11.23;;;1.70;99.90;;;;;;5225904;28;20233;-48
2023/01/25 00:57:31;;;;;;;15.30;10.70;;;1.70;99.90;;;;;;5221015;22;20839;-48
2023/01/25 01:00:01;;;;;;;15.67;10.80;;;1.70;99.90;;;;;;5204481;28;20199;-47
2023/01/25 01:02:32;;;;;;;16.67;11.07;;;1.70;99.90;;;;;;5186964;28;20187;-47
2023/01/25 01:05:02;;;;;;;21.97;11.33;;;1.80;99.90;;;;;;5199002;28;20590;-47
2023/01/25 01:07:33;;;;;;;15.30;10.13;;;1.80;99.90;;;;;;5209694;28;20234;-48
2023/01/25 01:10:04;;;;;;;24.57;13.33;;;1.80;99.90;;;;;;5189701;28;20249;-47
2023/01/25 01:12:35;;;;;;;24.43;12.90;;;1.70;99.90;;;;;;5207991;28;20191;-49
2023/01/25 01:15:06;;;;;;;20.93;10.30;;;1.70;99.90;;;;;;5203621;28;20837;-48
2023/01/25 01:17:37;;;;;;;19.20;10.47;;;1.60;99.90;;;;;;5196756;28;20196;-48
2023/01/25 01:20:08;;;;;;;18.10;10.30;;;1.60;99.90;;;;;;5202109;28;20433;-50
2023/01/25 01:22:39;;;;;;;22.53;11.80;;;1.60;99.90;;;;;;5203037;28;20671;-47
2023/01/25 01:25:10;;;;;;;17.70;11.40;;;1.60;99.90;;;;;;5203529;28;20438;-48
2023/01/25 01:27:40;;;;;;;20.47;12.03;;;1.60;99.90;;;;;;5199927;28;20280;-48
2023/01/25 01:30:11;;;;;;;19.60;11.70;;;1.70;99.90;;;;;;5186864;28;20555;-48
2023/01/25 01:32:41;;;;;;;19.30;11.10;;;1.80;99.90;;;;;;5201166;28;20198;-49
2023/01/25 01:35:12;;;;;;;25.17;13.50;;;1.80;99.90;;;;;;5195678;28;20238;-49
2023/01/25 01:37:43;;;;;;;23.90;11.80;;;1.70;99.90;;;;;;5202558;28;20238;-48
2023/01/25 01:40:14;;;;;;;21.10;12.10;;;1.70;99.90;;;;;;5214077;28;20174;-47
2023/01/25 01:42:58;;;;;;;20.90;11.93;;;1.60;99.90;;;;;;5175003;28;20203;-49
2023/01/25 01:45:48;;;;;;;23.33;11.40;;;1.60;99.90;;;;;;5183456;28;20575;-48
2023/01/25 01:48:40;;;;;;;17.67;11.10;;;1.50;99.90;;;;;;5198883;28;20474;-47
2023/01/25 01:51:10;;;;;;;20.77;13.10;;;1.50;99.90;;;;;;5188443;28;20884;-48
2023/01/25 01:53:45;;;;;;;20.33;11.00;;;1.40;99.90;;;;;;5207744;28;20505;-48
2023/01/25 01:56:22;;;;;;;17.30;11.30;;;1.50;99.90;;;;;;5196942;28;20697;-47
2023/01/25 01:58:54;;;;;;;20.03;11.47;;;1.50;99.90;;;;;;5200389;28;21012;-48
2023/01/25 02:01:25;;;;;;;24.00;12.50;;;1.50;99.90;;;;;;5185842;28;20453;-47
2023/01/25 02:03:56;;;;;;;20.03;10.37;;;1.70;99.90;;;;;;5202323;28;20795;-47
2023/01/25 02:06:50;;;;;;;21.37;12.90;;;1.70;99.90;;;;;;5196098;28;20182;-47
2023/01/25 02:09:24;;;;;;;19.37;12.00;;;1.60;99.90;;;;;;5188747;28;20450;-47
2023/01/25 02:11:57;;;;;;;23.00;13.43;;;1.60;99.90;;;;;;5203755;28;20849;-47
2023/01/25 02:14:28;;;;;;;25.27;12.97;;;1.50;99.90;;;;;;5200622;28;20803;-47
2023/01/25 02:16:59;;;;;;;21.57;13.47;;;1.50;99.90;;;;;;5202932;28;20466;-47
2023/01/25 02:19:56;;;;;;;23.40;13.07;;;1.40;99.90;;;;;;5178659;28;20458;-49
2023/01/25 02:22:35;;;;;;;20.27;11.83;;;1.40;99.90;;;;;;5187371;28;20851;-49
2023/01/25 02:25:11;;;;;;;20.27;12.33;;;1.50;99.90;;;;;;5193736;28;20435;-47
2023/01/25 02:27:47;;;;;;;20.10;12.70;;;1.60;99.90;;;;;;5194255;28;21032;-47
2023/01/25 02:30:18;;;;;;;25.10;13.50;;;1.60;99.90;;;;;;5202615;28;20491;-46
2023/01/25 02:32:48;;;;;;;19.40;12.93;;;1.50;99.90;;;;;;5187621;28;20442;-48
2023/01/25 02:35:36;;;;;;;22.93;12.97;;;1.50;99.90;;;;;;5209897;28;20566;-48
2023/01/25 02:38:08;;;;;;;24.27;14.47;;;1.50;99.90;;;;;;5185698;28;20255;-47
2023/01/25 02:41:11;;;;;;;26.07;13.20;;;1.50;99.90;;;;;;5195393;28;21173;-48
2023/01/25 02:43:42;;;;;;;23.73;13.13;;;1.40;99.90;;;;;;5198478;28;20415;-49
2023/01/25 02:46:19;;;;;;;20.60;12.47;;;1.40;99.90;;;;;;5192642;28;20997;-48
2023/01/25 02:48:50;;;;;;;22.53;13.90;;;1.30;99.90;;;;;;5189960;28;20601;-48
2023/01/25 02:51:24;;;;;;;22.27;14.00;;;1.40;99.90;;;;;;5200890;28;20499;-48
2023/01/25 02:53:55;;;;;;;25.53;13.80;;;1.30;99.90;;;;;;5198665;28;20438;-47
2023/01/25 02:56:26;;;;;;;25.23;14.03;;;1.30;99.90;;;;;;5192853;28;20473;-49
2023/01/25 02:58:57;;;;;;;20.03;13.73;;;1.30;99.90;;;;;;5197401;28;20496;-48
2023/01/25 03:01:27;;;;;;;22.13;13.10;;;1.30;99.90;;;;;;5206891;28;20508;-49
2023/01/25 03:03:58;;;;;;;27.40;14.20;;;1.30;99.90;;;;;;5203088;28;20175;-49
2023/01/25 03:06:28;;;;;;;22.70;13.10;;;1.30;99.90;;;;;;5173245;28;20214;-49
2023/01/25 03:08:59;;;;;;;25.70;13.40;;;1.30;99.90;;;;;;5207953;28;20203;-48
2023/01/25 03:11:30;;;;;;;27.30;13.80;;;1.20;99.90;;;;;;5207210;28;20245;-51
2023/01/25 03:14:00;;;;;;;23.47;14.40;;;1.20;99.90;;;;;;5203167;28;20195;-48
2023/01/25 03:16:31;;;;;;;28.17;14.37;;;1.20;99.90;;;;;;5202803;28;20216;-48
2023/01/25 03:19:02;;;;;;;30.67;15.83;;;1.20;99.90;;;;;;5204425;28;20226;-49
2023/01/25 03:21:32;;;;;;;23.70;14.97;;;1.20;99.90;;;;;;5201890;28;20271;-49
2023/01/25 03:24:03;;;;;;;20.17;13.73;;;1.20;99.90;;;;;;5204665;28;20188;-48
2023/01/25 03:27:09;;;;;;;25.43;15.87;;;1.30;99.90;;;;;;5206882;28;20554;-48
2023/01/25 03:29:27;;;;;;;24.17;13.13;;;1.30;99.90;;;;;;5204805;28;20203;-49
2023/01/25 03:31:58;;;;;;;19.70;13.63;;;1.40;99.90;;;;;;5189352;28;20807;-49
2023/01/25 03:34:28;;;;;;;28.43;14.20;;;1.30;99.90;;;;;;5192154;28;20190;-49
2023/01/25 03:36:59;;;;;;;25.17;15.10;;;1.20;99.90;;;;;;5201400;28;20220;-49
2023/01/25 03:39:30;;;;;;;24.90;15.60;;;1.20;99.90;;;;;;5196092;28;20222;-49
2023/01/25 03:42:00;;;;;;;26.10;15.90;;;1.30;99.90;;;;;;5207966;28;20629;-49
2023/01/25 03:44:31;;;;;;;31.77;17.97;;;1.30;99.90;;;;;;5179366;28;20190;-48
2023/01/25 03:47:02;;;;;;;24.50;15.40;;;1.20;99.90;;;;;;5200728;28;20580;-50
2023/01/25 03:49:32;;;;;;;26.67;15.83;;;1.20;99.90;;;;;;5205235;28;20269;-47
2023/01/25 03:52:03;;;;;;;26.53;15.27;;;1.30;99.90;;;;;;5184539;28;20219;-48
2023/01/25 03:54:34;;;;;;;30.30;16.40;;;1.30;99.90;;;;;;5186436;28;20279;-48
2023/01/25 03:57:04;;;;;;;29.90;16.10;;;1.30;99.90;;;;;;5184312;28;20244;-49
2023/01/25 03:59:35;;;;;;;31.93;17.00;;;1.30;99.90;;;;;;5206124;28;20659;-48
2023/01/25 04:02:06;;;;;;;28.40;16.00;;;1.40;99.90;;;;;;5198700;28;20187;-48
2023/01/25 04:04:36;;;;;;;23.13;14.87;;;1.40;99.90;;;;;;5199299;28;20258;-48
2023/01/25 04:07:07;;;;;;;23.87;14.50;;;1.40;99.90;;;;;;5199472;28;20625;-48
2023/01/25 04:09:37;;;;;;;24.93;16.10;;;1.60;99.90;;;;;;5203039;28;20251;-48
2023/01/25 04:12:08;;;;;;;23.43;15.70;;;1.60;99.90;;;;;;5198969;28;20196;-48
2023/01/25 04:14:38;;;;;;;27.27;16.27;;;1.70;99.90;;;;;;5188962;28;20206;-52
2023/01/25 04:17:09;;;;;;;34.23;16.43;;;1.80;99.90;;;;;;5178530;28;20220;-51
2023/01/25 04:19:40;;;;;;;28.07;15.30;;;1.70;99.90;;;;;;5192526;28;20261;-50
2023/01/25 04:22:11;;;;;;;25.00;15.00;;;1.70;99.90;;;;;;5198428;28;20663;-47
2023/01/25 04:24:42;;;;;;;25.50;15.37;;;1.80;99.90;;;;;;5207046;28;20179;-51
2023/01/25 04:27:13;;;;;;;27.57;16.20;;;1.80;99.90;;;;;;5195301;28;20932;-51
2023/01/25 04:29:44;;;;;;;30.87;15.90;;;1.80;99.90;;;;;;5206217;28;20465;-51
2023/01/25 04:32:14;;;;;;;28.67;15.83;;;1.70;99.90;;;;;;5192687;28;20195;-51
2023/01/25 04:34:45;;;;;;;23.50;15.37;;;1.70;99.90;;;;;;5206453;28;20218;-50
2023/01/25 04:37:15;;;;;;;28.27;15.33;;;1.70;99.90;;;;;;5200608;28;20216;-51
2023/01/25 04:39:46;;;;;;;23.00;14.87;;;1.70;99.90;;;;;;5194779;28;20243;-51
2023/01/25 04:42:16;;;;;;;21.13;12.83;;;1.70;99.90;;;;;;5208071;28;20211;-47
2023/01/25 04:44:47;;;;;;;25.37;14.27;;;1.70;99.90;;;;;;5211547;28;20294;-47
2023/01/25 04:47:18;;;;;;;22.13;14.73;;;1.70;99.90;;;;;;5206855;28;20739;-47
2023/01/25 04:49:48;;;;;;;27.90;15.47;;;1.80;99.90;;;;;;5187112;28;20215;-50
2023/01/25 04:52:19;;;;;;;29.23;15.40;;;1.80;99.90;;;;;;5205459;28;20280;-46
2023/01/25 04:54:49;;;;;;;23.03;14.93;;;1.90;99.90;;;;;;5210230;28;20544;-47
2023/01/25 04:57:20;;;;;;;27.20;16.53;;;1.90;99.90;;;;;;5202842;28;20188;-48
2023/01/25 04:59:51;;;;;;;31.83;18.00;;;2.00;99.90;;;;;;5180510;28;20253;-48
2023/01/25 05:02:21;;;;;;;26.67;16.20;;;2.00;99.90;;;;;;5204097;28;20188;-49
2023/01/25 05:04:52;;;;;;;28.27;16.50;;;2.00;99.90;;;;;;5201016;28;20183;-48
2023/01/25 05:07:22;;;;;;;31.90;17.60;;;2.00;99.90;;;;;;5208962;28;20187;-48
2023/01/25 05:09:53;;;;;;;30.30;18.03;;;2.10;99.90;;;;;;5184166;28;20223;-51
2023/01/25 05:12:24;;;;;;;29.67;17.53;;;2.10;99.90;;;;;;5179943;28;20180;-47
2023/01/25 05:14:54;;;;;;;37.47;16.40;;;2.10;99.90;;;;;;5210265;28;20552;-48
2023/01/25 05:17:25;;;;;;;29.80;16.33;;;2.10;99.90;;;;;;5202452;28;20188;-48
2023/01/25 05:19:56;;;;;;;39.43;18.00;;;2.10;99.90;;;;;;5206030;28;20183;-46
2023/01/25 05:22:27;;;;;;;27.97;17.93;;;2.20;99.90;;;;;;5206067;28;20434;-47
2023/01/25 05:24:58;;;;;;;31.60;16.67;;;2.20;99.90;;;;;;5203347;28;20271;-47
2023/01/25 05:27:28;;;;;;;28.10;16.90;;;2.20;99.90;;;;;;5173710;28;20196;-47
2023/01/25 05:29:59;;;;;;;27.50;15.67;;;2.10;99.90;;;;;;5197659;28;20493;-47
2023/01/25 05:32:29;;;;;;;29.27;15.90;;;2.20;99.90;;;;;;5204775;28;20179;-50
2023/01/25 05:35:00;;;;;;;22.93;13.30;;;2.20;99.90;;;;;;5196639;28;20187;-47
2023/01/25 05:37:31;;;;;;;21.50;12.80;;;2.20;99.90;;;;;;5201109;28;20183;-47
2023/01/25 05:40:02;;;;;;;23.30;11.73;;;2.30;99.90;;;;;;5165353;28;20628;-46
2023/01/25 05:42:33;;;;;;;16.77;10.73;;;2.30;99.90;;;;;;5184132;28;20187;-51
2023/01/25 05:45:04;;;;;;;14.50;10.00;;;2.30;99.90;;;;;;5191588;28;20442;-48
2023/01/25 05:47:35;;;;;;;15.80;10.13;;;2.30;99.90;;;;;;5207093;28;20611;-47
2023/01/25 05:50:06;;;;;;;19.40;11.43;;;2.30;99.90;;;;;;5202609;28;20502;-46
2023/01/25 05:52:36;;;;;;;16.80;10.87;;;2.30;99.90;;;;;;5185861;28;20182;-48
2023/01/25 05:55:07;;;;;;;16.60;10.93;;;2.40;99.90;;;;;;5204479;28;20524;-47
2023/01/25 05:57:38;;;;;;;24.17;11.17;;;2.30;99.90;;;;;;5188137;28;20269;-47
2023/01/25 06:00:10;;;;;;;17.60;10.50;;;2.30;99.90;;;;;;5201519;28;20545;-48
2023/01/25 06:02:40;;;;;;;23.83;10.47;;;2.30;99.90;;;;;;5195507;28;20188;-47
2023/01/25 06:05:11;;;;;;;19.90;12.60;;;2.20;99.90;;;;;;5186584;28;20439;-48
2023/01/25 06:07:42;;;;;;;28.77;12.80;;;2.20;99.90;;;;;;5206149;28;20208;-47
2023/01/25 06:10:12;;;;;;;23.10;14.13;;;2.30;99.90;;;;;;5203971;28;20187;-52
2023/01/25 06:12:43;;;;;;;18.43;12.40;;;2.20;99.90;;;;;;5186087;28;20294;-52
2023/01/25 06:15:13;;;;;;;27.27;14.80;;;2.20;99.90;;;;;;5184896;28;20648;-51
2023/01/25 06:17:44;;;;;;;19.10;12.03;;;2.10;99.90;;;;;;5186335;28;20250;-51
2023/01/25 06:20:14;;;;;;;25.87;13.70;;;2.20;99.90;;;;;;5200401;28;20647;-53
2023/01/25 06:22:50;;;;;;;18.23;11.60;;;2.30;99.90;;;;;;5184211;28;20202;-52
2023/01/25 06:25:20;;;;;;;19.50;11.97;;;2.30;99.90;;;;;;5177083;28;20509;-51
2023/01/25 06:27:54;;;;;;;18.27;11.50;;;2.40;99.90;;;;;;5185486;28;20454;-51
2023/01/25 06:30:24;;;;;;;14.60;9.67;;;2.30;99.90;;;;;;5203863;28;20184;-52
2023/01/25 06:32:57;;;;;;;12.90;9.50;;;2.20;99.90;;;;;;5200228;28;20442;-50
2023/01/25 06:35:31;;;;;;;16.47;10.00;;;2.20;99.90;;;;;;5184039;28;20208;-52
2023/01/25 06:38:01;;;;;;;12.10;8.80;;;2.20;99.90;;;;;;5195472;28;20980;-53
2023/01/25 06:40:32;;;;;;;18.00;8.57;;;2.20;99.90;;;;;;5183735;28;20434;-50
2023/01/25 06:43:10;;;;;;;13.13;8.47;;;2.30;99.90;;;;;;5200177;28;20210;-52
2023/01/25 06:45:41;;;;;;;16.93;9.07;;;2.30;99.90;;;;;;5177419;28;20313;-52
2023/01/25 06:48:13;;;;;;;15.13;9.93;;;2.30;99.90;;;;;;5192263;28;20481;-52
2023/01/25 06:50:43;;;;;;;13.00;9.83;;;2.40;99.90;;;;;;5196274;28;20480;-50
2023/01/25 06:53:14;;;;;;;15.03;8.47;;;2.40;99.90;;;;;;5193195;28;20558;-51
2023/01/25 06:55:44;;;;;;;11.17;8.63;;;2.30;99.90;;;;;;5207485;28;20249;-50
2023/01/25 06:58:15;;;;;;;24.20;11.27;;;2.40;99.90;;;;;;5206391;22;21488;-50
2023/01/25 07:00:46;;;;;;;17.47;11.67;;;2.30;99.90;;;;;;5229318;28;20182;-50
2023/01/25 07:03:17;;;;;;;26.13;15.73;;;2.30;99.90;;;;;;5247092;28;20209;-50
2023/01/25 07:05:48;;;;;;;19.97;10.70;;;2.40;99.90;;;;;;5230800;28;20959;-50
2023/01/25 07:08:21;;;;;;;16.40;12.10;;;2.40;99.90;;;;;;5238099;28;20211;-50
2023/01/25 07:10:54;;;;;;;19.67;11.70;;;2.30;99.90;;;;;;5202245;28;20433;-50
2023/01/25 07:13:26;;;;;;;22.10;13.37;;;2.20;99.90;;;;;;5219740;28;20430;-50
2023/01/25 07:15:59;;;;;;;18.93;12.40;;;2.20;99.90;;;;;;5204187;28;20470;-50
2023/01/25 07:18:31;;;;;;;23.50;12.43;;;2.20;99.90;;;;;;5225777;28;20466;-50
2023/01/25 07:21:13;;;;;;;19.03;12.03;;;2.20;99.90;;;;;;5219012;28;20425;-50
2023/01/25 07:23:43;;;;;;;19.10;12.00;;;2.50;99.90;;;;;;5228560;28;20433;-49
2023/01/25 07:26:23;;;;;;;22.40;13.17;;;2.40;99.90;;;;;;5222014;28;20851;-48
2023/01/25 07:28:56;;;;;;;21.23;12.77;;;2.20;99.90;;;;;;5225262;28;20205;-49
2023/01/25 07:31:27;;;;;;;24.50;14.40;;;2.10;99.90;;;;;;5228272;28;20425;-50
2023/01/25 07:33:58;;;;;;;20.57;13.10;;;2.20;99.90;;;;;;5228950;28;20425;-49
2023/01/25 07:36:29;;;;;;;26.73;15.67;;;2.30;99.90;;;;;;5220316;28;20464;-50
2023/01/25 07:38:59;;;;;;;32.33;15.37;;;2.40;99.90;;;;;;5217328;28;20206;-49
2023/01/25 07:41:31;;;;;;;24.57;15.10;;;2.30;99.90;;;;;;5203634;28;20167;-48
2023/01/25 07:44:02;;;;;;;28.70;14.87;;;2.30;99.90;;;;;;5221086;28;20451;-49
2023/01/25 07:46:33;;;;;;;19.40;13.63;;;2.30;99.90;;;;;;5225289;28;20956;-49
2023/01/25 07:49:03;;;;;;;28.47;15.17;;;2.20;99.90;;;;;;5198258;28;20486;-50
2023/01/25 07:51:34;;;;;;;18.40;13.23;;;2.30;99.90;;;;;;5220981;28;20266;-50
2023/01/25 07:54:05;;;;;;;25.13;15.03;;;2.20;99.90;;;;;;5226857;28;20183;-49
2023/01/25 07:56:39;;;;;;;24.13;14.20;;;2.30;99.90;;;;;;5220096;28;20237;-49
2023/01/25 07:59:10;;;;;;;21.23;13.77;;;2.30;99.90;;;;;;5225503;28;20515;-50
2023/01/25 08:01:41;;;;;;;24.43;14.40;;;2.20;99.90;;;;;;5220956;28;20734;-50
2023/01/25 08:04:12;;;;;;;37.17;19.33;;;2.30;99.90;;;;;;5206788;28;20442;-50
2023/01/25 08:06:45;;;;;;;37.83;22.03;;;2.30;99.90;;;;;;5201110;28;20185;-50
2023/01/25 08:09:18;;;;;;;36.10;21.37;;;2.30;99.90;;;;;;5222175;28;20206;-51
2023/01/25 08:11:49;;;;;;;41.23;22.00;;;2.20;99.90;;;;;;5214480;28;20460;-51
2023/01/25 08:14:20;;;;;;;40.10;21.17;;;2.40;99.90;;;;;;5223694;28;20460;-49
2023/01/25 08:16:51;;;;;;;39.07;20.73;;;2.40;99.90;;;;;;5226665;28;20226;-49
2023/01/25 08:19:23;;;;;;;50.93;28.00;;;2.30;99.90;;;;;;5223180;28;20458;-50
2023/01/25 08:21:54;;;;;;;38.20;19.90;;;2.40;99.90;;;;;;5227247;28;20398;-50
2023/01/25 08:24:25;;;;;;;30.43;18.30;;;2.30;99.90;;;;;;5218898;28;20418;-50
2023/01/25 08:26:56;;;;;;;28.40;17.20;;;2.30;99.90;;;;;;5231303;28;20441;-49
2023/01/25 08:29:27;;;;;;;31.03;17.83;;;2.30;99.90;;;;;;5217240;28;20960;-49
2023/01/25 08:31:59;;;;;;;41.53;22.60;;;2.20;99.90;;;;;;5218979;28;20186;-50
2023/01/25 08:34:31;;;;;;;46.07;23.50;;;2.30;99.90;;;;;;5215081;28;20187;-50
2023/01/25 08:37:01;;;;;;;34.40;20.57;;;2.30;99.90;;;;;;5224500;28;20465;-50
2023/01/25 08:39:32;;;;;;;30.33;18.27;;;2.30;99.90;;;;;;5222099;28;20453;-50
2023/01/25 08:42:05;;;;;;;39.37;18.90;;;2.30;99.90;;;;;;5224045;28;20190;-50
2023/01/25 08:44:35;;;;;;;27.17;15.83;;;2.30;99.90;;;;;;5224495;28;20441;-50
2023/01/25 08:47:06;;;;;;;28.87;15.63;;;2.20;99.90;;;;;;5224038;28;20438;-51
2023/01/25 08:49:37;;;;;;;20.13;13.10;;;2.20;99.90;;;;;;5216744;28;20207;-51
2023/01/25 08:52:08;;;;;;;26.60;15.60;;;2.20;99.90;;;;;;5205798;28;20662;-50
2023/01/25 08:54:42;;;;;;;26.10;16.10;;;2.20;99.90;;;;;;5217210;28;20437;-51
2023/01/25 08:57:13;;;;;;;28.13;15.70;;;2.20;99.90;;;;;;5219016;28;20488;-50
2023/01/25 08:59:44;;;;;;;23.77;15.37;;;2.30;99.90;;;;;;5221822;28;20492;-51
2023/01/25 09:02:15;;;;;;;24.17;15.57;;;2.30;99.90;;;;;;5210254;28;20183;-49
2023/01/25 09:04:46;;;;;;;28.23;16.20;;;2.30;99.90;;;;;;5220909;28;20202;-50
2023/01/25 09:07:17;;;;;;;25.70;13.57;;;2.30;99.90;;;;;;5209498;28;20190;-49
2023/01/25 09:09:47;;;;;;;30.20;14.43;;;2.30;99.90;;;;;;5227218;28;20955;-50
2023/01/25 09:12:18;;;;;;;24.07;14.50;;;2.30;99.90;;;;;;5200721;28;20208;-50
2023/01/25 09:14:49;;;;;;;31.90;14.60;;;2.40;99.90;;;;;;5202840;28;20171;-51
2023/01/25 09:17:20;;;;;;;24.33;13.27;;;2.40;99.90;;;;;;5205670;28;20301;-49
2023/01/25 09:19:51;;;;;;;23.87;14.40;;;2.40;99.90;;;;;;5208737;28;20195;-52
2023/01/25 09:22:22;;;;;;;37.97;15.67;;;2.30;99.90;;;;;;5207729;28;20446;-50
2023/01/25 09:24:53;;;;;;;30.33;15.63;;;2.30;99.90;;;;;;5206347;28;20765;-49
2023/01/25 09:27:24;;;;;;;34.13;15.70;;;2.20;99.90;;;;;;5220641;28;20425;-50
2023/01/25 09:29:55;;;;;;;23.90;13.33;;;2.30;99.90;;;;;;5220127;28;20453;-49
2023/01/25 09:32:26;;;;;;;24.33;12.80;;;2.40;99.90;;;;;;5204106;28;20241;-51
2023/01/25 09:34:56;;;;;;;32.37;14.83;;;2.30;99.90;;;;;;5192046;28;21032;-50
2023/01/25 09:37:27;;;;;;;28.47;15.20;;;2.30;99.90;;;;;;5225565;28;20489;-50
2023/01/25 09:39:59;;;;;;;29.17;15.03;;;2.30;99.90;;;;;;5209730;28;20191;-49
2023/01/25 09:42:55;;;;;;;37.83;16.20;;;2.20;99.90;;;;;;5224494;28;20418;-51
2023/01/25 09:45:31;;;;;;;28.27;14.40;;;2.30;99.90;;;;;;5208218;28;20494;-51
2023/01/25 09:48:28;;;;;;;25.70;14.97;;;2.30;99.90;;;;;;5193387;28;20452;-47
2023/01/25 09:51:05;;;;;;;24.63;14.00;;;2.30;99.90;;;;;;5198501;28;20445;-53
2023/01/25 09:53:39;;;;;;;21.40;14.57;;;2.40;99.90;;;;;;5206030;28;20492;-51
2023/01/25 09:56:10;;;;;;;32.90;14.43;;;2.20;99.90;;;;;;5219248;28;20864;-52
2023/01/25 09:58:47;;;;;;;24.03;13.73;;;2.20;99.90;;;;;;5209108;28;20461;-52
2023/01/25 10:01:33;;;;;;;24.33;15.10;;;2.30;99.90;;;;;;5203215;28;20507;-51
2023/01/25 10:04:26;;;;;;;27.87;14.93;;;2.20;99.90;;;;;;5209598;28;20413;-50
2023/01/25 10:07:10;;;;;;;29.50;15.10;;;2.20;99.90;;;;;;5205604;28;20433;-52
2023/01/25 10:10:05;;;;;;;27.70;14.90;;;2.20;99.90;;;;;;5214201;28;20431;-50
2023/01/25 10:12:37;;;;;;;32.57;13.57;;;2.20;99.90;;;;;;5210323;28;20421;-52
2023/01/25 10:15:26;;;;;;;33.87;15.10;;;2.20;99.90;;;;;;5219917;28;20437;-51
2023/01/25 10:18:35;;;;;;;27.10;13.83;;;2.30;99.90;;;;;;5203152;28;20468;-52
2023/01/25 10:21:20;;;;;;;21.37;13.97;;;2.30;99.90;;;;;;5218507;28;20418;-51
2023/01/25 10:24:27;;;;;;;24.47;14.13;;;2.30;99.90;;;;;;5203975;28;20433;-52
2023/01/25 10:27:15;;;;;;;36.47;16.53;;;2.30;99.90;;;;;;5216765;28;20590;-51
2023/01/25 10:29:47;;;;;;;29.07;14.50;;;2.20;99.90;;;;;;5218795;28;20465;-52
2023/01/25 10:32:33;;;;;;;24.17;13.20;;;2.20;99.90;;;;;;5190221;28;20893;-50
2023/01/25 10:35:18;;;;;;;28.37;14.43;;;2.20;99.90;;;;;;5219806;28;20442;-52
2023/01/25 10:37:50;;;;;;;32.50;15.30;;;2.20;99.90;;;;;;5215683;28;20430;-52
2023/01/25 10:40:23;;;;;;;37.77;16.30;;;2.30;99.90;;;;;;5197360;28;20468;-51
2023/01/25 10:43:01;;;;;;;25.20;14.20;;;2.30;99.90;;;;;;5209104;28;20498;-52
2023/01/25 10:45:32;;;;;;;27.13;14.93;;;2.40;99.90;;;;;;5222621;28;20432;-52
2023/01/25 10:48:11;;;;;;;20.17;12.73;;;2.50;99.90;;;;;;5219678;28;20465;-51
2023/01/25 10:50:47;;;;;;;23.83;14.17;;;2.40;99.90;;;;;;5201868;28;20598;-51
2023/01/25 10:53:24;;;;;;;24.57;13.57;;;2.30;99.90;;;;;;5219626;28;20872;-51
2023/01/25 10:56:01;;;;;;;28.47;15.30;;;2.10;99.90;;;;;;5219459;28;20475;-52
2023/01/25 10:58:39;;;;;;;29.10;14.03;;;2.20;99.90;;;;;;5206613;28;20478;-51
2023/01/25 11:01:31;;;;;;;29.77;15.07;;;2.30;99.90;;;;;;5207536;28;20510;-53
2023/01/25 11:04:02;;;;;;;27.87;14.63;;;2.30;99.90;;;;;;5223017;28;20427;-51
2023/01/25 11:06:34;;;;;;;31.27;16.17;;;2.40;99.90;;;;;;5206600;28;20438;-52
2023/01/25 11:09:20;;;;;;;33.00;17.47;;;2.40;99.90;;;;;;5221662;28;20503;-50
2023/01/25 11:11:59;;;;;;;32.00;15.60;;;2.20;99.90;;;;;;5202051;28;20880;-52
2023/01/25 11:14:31;;;;;;;34.33;16.43;;;2.20;99.90;;;;;;5225403;28;20445;-52
2023/01/25 11:17:04;;;;;;;31.30;15.73;;;2.20;99.90;;;;;;5202303;28;20819;-53
2023/01/25 11:19:38;;;;;;;30.60;18.10;;;2.20;99.90;;;;;;5206196;28;20466;-53
2023/01/25 11:22:29;;;;;;;45.97;20.60;;;2.30;99.90;;;;;;5226651;28;20781;-52
2023/01/25 11:25:30;;;;;;;37.60;17.23;;;2.30;99.90;;;;;;5224039;28;20951;-51
2023/01/25 11:28:23;;;;;;;37.47;18.73;;;2.30;99.90;;;;;;5223948;28;20444;-50
2023/01/25 11:30:54;;;;;;;35.63;18.27;;;2.40;99.90;;;;;;5222953;28;20429;-50
2023/01/25 11:33:25;;;;;;;38.20;20.67;;;2.30;99.90;;;;;;5206986;28;20528;-51
2023/01/25 11:36:08;;;;;;;39.23;19.40;;;2.40;99.90;;;;;;5207944;28;20711;-50
2023/01/25 11:38:54;;;;;;;34.53;19.47;;;2.40;99.90;;;;;;5207432;28;20461;-50
2023/01/25 11:41:44;;;;;;;35.43;18.10;;;2.50;99.90;;;;;;5207393;28;20437;-51
2023/01/25 11:44:43;;;;;;;31.27;17.03;;;2.50;99.90;;;;;;5179817;28;20436;-52
2023/01/25 11:47:17;;;;;;;46.40;23.07;;;2.50;99.90;;;;;;5206210;28;20438;-51
2023/01/25 11:50:13;;;;;;;35.93;19.30;;;2.50;99.90;;;;;;5207723;28;20470;-50
2023/01/25 11:53:02;;;;;;;32.40;17.90;;;2.50;99.90;;;;;;5213958;28;20904;-50
2023/01/25 11:55:50;;;;;;;80.80;33.73;;;2.50;99.90;;;;;;5210246;28;20936;-51
2023/01/25 11:58:43;;;;;;;38.43;20.10;;;2.50;99.90;;;;;;5229509;28;20945;-51
2023/01/25 12:01:23;;;;;;;31.87;17.87;;;2.50;99.90;;;;;;5199688;28;20434;-50
2023/01/25 12:04:40;;;;;;;37.93;19.30;;;2.40;99.90;;;;;;5226574;28;20432;-51
2023/01/25 12:07:39;;;;;;;64.63;27.23;;;2.30;99.90;;;;;;5144712;28;20480;-51
2023/01/25 12:10:30;;;;;;;42.53;19.30;;;2.40;99.90;;;;;;5142047;28;20440;-50
2023/01/25 12:13:23;;;;;;;48.73;21.20;;;2.40;99.90;;;;;;5200102;28;20437;-49
2023/01/25 12:16:20;;;;;;;38.83;22.43;;;2.40;99.90;;;;;;5220871;28;21039;-49
2023/01/25 12:19:06;;;;;;;47.40;21.37;;;2.50;99.90;;;;;;5189613;28;20450;-51
2023/01/25 12:22:01;;;;;;;45.40;22.80;;;2.40;99.90;;;;;;5216857;28;20429;-50
2023/01/25 12:24:57;;;;;;;37.43;20.20;;;2.40;99.90;;;;;;5210957;28;20432;-52
2023/01/25 12:27:41;;;;;;;32.00;16.80;;;2.30;99.90;;;;;;5209249;28;20434;-50
2023/01/25 12:30:44;;;;;;;50.57;19.53;;;2.30;99.90;;;;;;5224044;28;20431;-50
2023/01/25 12:33:22;;;;;;;43.07;19.90;;;2.20;99.90;;;;;;5203706;28;20449;-50
2023/01/25 12:36:10;;;;;;;34.33;18.03;;;2.20;99.90;;;;;;5224205;28;21002;-51
2023/01/25 12:38:49;;;;;;;41.33;19.57;;;2.20;99.90;;;;;;5225990;28;20451;-51
2023/01/25 12:41:26;;;;;;;32.30;17.97;;;2.30;99.90;;;;;;5221862;28;20432;-50
2023/01/25 12:44:26;;;;;;;41.47;19.77;;;2.20;99.90;;;;;;5206839;28;20561;-51
2023/01/25 12:47:19;;;;;;;45.17;19.90;;;2.20;99.90;;;;;;5199821;28;20729;-50
2023/01/25 12:50:03;;;;;;;36.43;18.27;;;2.30;99.90;;;;;;5205819;28;20483;-50
2023/01/25 12:52:40;;;;;;;43.43;20.70;;;2.20;99.90;;;;;;5222873;28;20421;-56
2023/01/25 12:55:16;;;;;;;39.20;19.13;;;2.30;99.90;;;;;;5215188;28;20817;-50
2023/01/25 12:58:05;;;;;;;67.83;27.70;;;2.20;99.90;;;;;;5222616;28;20441;-49
2023/01/25 13:00:39;;;;;;;41.37;19.93;;;2.20;99.90;;;;;;5203032;22;20977;-49
2023/01/25 13:03:31;;;;;;;40.43;20.53;;;2.10;99.90;;;;;;5207363;28;20974;-50
2023/01/25 13:06:24;;;;;;;34.97;18.00;;;2.10;99.90;;;;;;5207541;28;20434;-50
2023/01/25 13:09:05;;;;;;;62.87;24.80;;;2.00;99.90;;;;;;5204167;28;20462;-49
2023/01/25 13:11:39;;;;;;;46.33;21.43;;;2.00;99.90;;;;;;5188645;28;20438;-49
2023/01/25 13:14:19;;;;;;;44.67;22.60;;;1.90;99.90;;;;;;5205729;28;20521;-48
2023/01/25 13:16:54;;;;;;;61.07;29.40;;;1.80;99.90;;;;;;5206111;28;20497;-51
2023/01/25 13:19:28;;;;;;;47.63;22.83;;;1.70;99.90;;;;;;5204713;28;20537;-51